sensor_id;sensor_type;location;lat;lon;timestamp;temperature;humidity
3756;DHT22;1893;52.526;13.360;2022-12-07T00:01:32;2.50;99.90
3756;DHT22;1893;52.526;13.360;2022-12-07T00:04:01;2.50;99.90
3756;DHT22;1893;52.526;13.360;2022-12-07T00:06:31;2.50;99.90
3756;DHT22;1893;52.526;13.360;2022-12-07T00:08:57;2.40;99.90
3756;DHT22;1893;52.526;13.360;2022-12-07T00:11:23;2.40;99.90
3756;DHT22;1893;52.526;13.360;2022-12-07T00:14:00;2.40;99.90
3756;DHT22;1893;52.526;13.360;2022-12-07T00:16:29;2.40;99.90
3756;DHT22;1893;52.526;13.360;2022-12-07T00:18:56;2.40;99.90
3756;DHT22;1893;52.526;13.360;2022-12-07T00:21:30;2.30;99.90
3756;DHT22;1893;52.526;13.360;2022-12-07T00:23:56;2.20;99.90
3756;DHT22;1893;52.526;13.360;2022-12-07T00:26:24;2.30;99.90
3756;DHT22;1893;52.526;13.360;2022-12-07T00:28:56;2.30;99.90
3756;DHT22;1893;52.526;13.360;2022-12-07T00:31:24;2.30;99.90
3756;DHT22;1893;52.526;13.360;2022-12-07T00:33:50;2.30;99.90
3756;DHT22;1893;52.526;13.360;2022-12-07T00:36:18;2.30;99.90
3756;DHT22;1893;52.526;13.360;2022-12-07T00:38:44;2.30;99.90
3756;DHT22;1893;52.526;13.360;2022-12-07T00:41:21;2.30;99.90
3756;DHT22;1893;52.526;13.360;2022-12-07T00:43:48;2.20;99.90
3756;DHT22;1893;52.526;13.360;2022-12-07T00:46:15;2.20;99.90
3756;DHT22;1893;52.526;13.360;2022-12-07T00:48:41;2.10;99.90
3756;DHT22;1893;52.526;13.360;2022-12-07T00:51:07;2.20;99.90
3756;DHT22;1893;52.526;13.360;2022-12-07T00:53:38;2.10;99.90
3756;DHT22;1893;52.526;13.360;2022-12-07T00:56:15;2.10;99.90
3756;DHT22;1893;52.526;13.360;2022-12-07T00:58:41;2.10;99.90
3756;DHT22;1893;52.526;13.360;2022-12-07T01:01:08;2.10;99.90
3756;DHT22;1893;52.526;13.360;2022-12-07T01:03:34;2.00;99.90
3756;DHT22;1893;52.526;13.360;2022-12-07T01:06:00;1.90;99.90
3756;DHT22;1893;52.526;13.360;2022-12-07T01:08:27;1.80;99.90
3756;DHT22;1893;52.526;13.360;2022-12-07T01:11:20;1.80;99.90
3756;DHT22;1893;52.526;13.360;2022-12-07T01:13:48;1.80;99.90
3756;DHT22;1893;52.526;13.360;2022-12-07T01:16:16;1.80;99.90
3756;DHT22;1893;52.526;13.360;2022-12-07T01:18:42;1.80;99.90
3756;DHT22;1893;52.526;13.360;2022-12-07T01:21:13;1.90;99.90
3756;DHT22;1893;52.526;13.360;2022-12-07T01:23:40;1.90;99.90
3756;DHT22;1893;52.526;13.360;2022-12-07T01:26:09;1.90;99.90
3756;DHT22;1893;52.526;13.360;2022-12-07T01:28:34;1.90;99.90
3756;DHT22;1893;52.526;13.360;2022-12-07T01:33:33;1.90;99.90
3756;DHT22;1893;52.526;13.360;2022-12-07T01:36:27;1.90;99.90
3756;DHT22;1893;52.526;13.360;2022-12-07T01:38:58;1.90;99.90
3756;DHT22;1893;52.526;13.360;2022-12-07T01:41:26;1.80;99.90
3756;DHT22;1893;52.526;13.360;2022-12-07T01:44:13;1.80;99.90
3756;DHT22;1893;52.526;13.360;2022-12-07T01:46:41;1.90;99.90
3756;DHT22;1893;52.526;13.360;2022-12-07T01:49:12;1.90;99.10
3756;DHT22;1893;52.526;13.360;2022-12-07T01:51:40;2.00;40.40
3756;DHT22;1893;52.526;13.360;2022-12-07T01:54:08;1.90;1.00
3756;DHT22;1893;52.526;13.360;2022-12-07T01:56:36;1.90;72.50
3756;DHT22;1893;52.526;13.360;2022-12-07T01:59:02;2.00;95.90
3756;DHT22;1893;52.526;13.360;2022-12-07T02:01:28;1.90;95.30
3756;DHT22;1893;52.526;13.360;2022-12-07T02:03:54;2.00;99.20
3756;DHT22;1893;52.526;13.360;2022-12-07T02:06:23;2.00;95.10
3756;DHT22;1893;52.526;13.360;2022-12-07T02:08:50;2.10;99.00
3756;DHT22;1893;52.526;13.360;2022-12-07T02:11:15;2.00;93.80
3756;DHT22;1893;52.526;13.360;2022-12-07T02:13:43;2.00;61.20
3756;DHT22;1893;52.526;13.360;2022-12-07T02:21:56;2.00;23.40
3756;DHT22;1893;52.526;13.360;2022-12-07T02:27:37;1.80;50.70
3756;DHT22;1893;52.526;13.360;2022-12-07T02:30:08;1.80;94.10
3756;DHT22;1893;52.526;13.360;2022-12-07T02:32:48;1.80;99.90
3756;DHT22;1893;52.526;13.360;2022-12-07T02:35:24;1.80;99.90
3756;DHT22;1893;52.526;13.360;2022-12-07T02:40:42;1.70;99.90
3756;DHT22;1893;52.526;13.360;2022-12-07T02:43:13;1.70;99.90
3756;DHT22;1893;52.526;13.360;2022-12-07T02:45:42;1.60;99.90
3756;DHT22;1893;52.526;13.360;2022-12-07T02:48:10;1.60;99.90
3756;DHT22;1893;52.526;13.360;2022-12-07T02:50:37;1.60;99.90
3756;DHT22;1893;52.526;13.360;2022-12-07T02:53:03;1.60;99.90
3756;DHT22;1893;52.526;13.360;2022-12-07T02:55:34;1.60;99.90
3756;DHT22;1893;52.526;13.360;2022-12-07T03:01:01;1.60;99.90
3756;DHT22;1893;52.526;13.360;2022-12-07T03:03:30;1.60;99.90
3756;DHT22;1893;52.526;13.360;2022-12-07T03:06:11;1.60;99.90
3756;DHT22;1893;52.526;13.360;2022-12-07T03:08:56;1.60;99.90
3756;DHT22;1893;52.526;13.360;2022-12-07T03:11:32;1.70;99.90
3756;DHT22;1893;52.526;13.360;2022-12-07T03:14:00;1.70;99.90
3756;DHT22;1893;52.526;13.360;2022-12-07T03:16:35;1.70;99.90
3756;DHT22;1893;52.526;13.360;2022-12-07T03:19:13;1.70;99.90
3756;DHT22;1893;52.526;13.360;2022-12-07T03:21:46;1.70;99.90
3756;DHT22;1893;52.526;13.360;2022-12-07T03:24:17;1.70;99.90
3756;DHT22;1893;52.526;13.360;2022-12-07T03:26:51;1.70;99.90
3756;DHT22;1893;52.526;13.360;2022-12-07T03:29:25;1.70;99.90
3756;DHT22;1893;52.526;13.360;2022-12-07T03:31:59;1.70;99.90
3756;DHT22;1893;52.526;13.360;2022-12-07T03:34:34;1.80;99.90
3756;DHT22;1893;52.526;13.360;2022-12-07T03:37:08;1.80;99.90
3756;DHT22;1893;52.526;13.360;2022-12-07T03:40:00;1.80;99.90
3756;DHT22;1893;52.526;13.360;2022-12-07T03:42:27;1.90;99.90
3756;DHT22;1893;52.526;13.360;2022-12-07T03:44:54;1.80;99.90
3756;DHT22;1893;52.526;13.360;2022-12-07T03:47:47;1.90;99.90
3756;DHT22;1893;52.526;13.360;2022-12-07T03:50:31;1.90;99.90
3756;DHT22;1893;52.526;13.360;2022-12-07T03:53:24;1.80;99.90
3756;DHT22;1893;52.526;13.360;2022-12-07T03:55:52;1.90;99.90
3756;DHT22;1893;52.526;13.360;2022-12-07T03:58:21;1.90;99.90
3756;DHT22;1893;52.526;13.360;2022-12-07T04:00:49;1.90;99.90
3756;DHT22;1893;52.526;13.360;2022-12-07T04:03:15;1.90;99.90
3756;DHT22;1893;52.526;13.360;2022-12-07T04:05:41;1.80;99.90
3756;DHT22;1893;52.526;13.360;2022-12-07T04:08:07;1.80;99.90
3756;DHT22;1893;52.526;13.360;2022-12-07T04:10:33;1.80;99.90
3756;DHT22;1893;52.526;13.360;2022-12-07T04:12:59;1.70;99.90
3756;DHT22;1893;52.526;13.360;2022-12-07T04:15:25;1.70;99.90
3756;DHT22;1893;52.526;13.360;2022-12-07T04:17:50;1.70;99.90
3756;DHT22;1893;52.526;13.360;2022-12-07T04:20:16;1.70;99.90
3756;DHT22;1893;52.526;13.360;2022-12-07T04:22:42;1.70;99.90
3756;DHT22;1893;52.526;13.360;2022-12-07T04:25:08;1.70;99.90
3756;DHT22;1893;52.526;13.360;2022-12-07T04:27:33;1.70;99.90
3756;DHT22;1893;52.526;13.360;2022-12-07T04:29:59;1.80;99.90
3756;DHT22;1893;52.526;13.360;2022-12-07T04:32:25;1.70;99.90
3756;DHT22;1893;52.526;13.360;2022-12-07T04:34:50;1.80;99.90
3756;DHT22;1893;52.526;13.360;2022-12-07T04:37:16;1.80;99.90
3756;DHT22;1893;52.526;13.360;2022-12-07T04:39:42;1.70;99.90
3756;DHT22;1893;52.526;13.360;2022-12-07T04:42:09;1.70;99.90
3756;DHT22;1893;52.526;13.360;2022-12-07T04:44:35;1.70;99.90
3756;DHT22;1893;52.526;13.360;2022-12-07T04:47:01;1.70;99.90
3756;DHT22;1893;52.526;13.360;2022-12-07T04:49:27;1.70;99.90
3756;DHT22;1893;52.526;13.360;2022-12-07T04:51:53;1.70;99.90
3756;DHT22;1893;52.526;13.360;2022-12-07T04:54:19;1.70;99.90
3756;DHT22;1893;52.526;13.360;2022-12-07T04:56:44;1.70;99.90
3756;DHT22;1893;52.526;13.360;2022-12-07T04:59:11;1.70;99.90
3756;DHT22;1893;52.526;13.360;2022-12-07T05:01:37;1.70;99.90
3756;DHT22;1893;52.526;13.360;2022-12-07T05:04:03;1.80;99.90
3756;DHT22;1893;52.526;13.360;2022-12-07T05:06:29;1.80;99.90
3756;DHT22;1893;52.526;13.360;2022-12-07T05:08:55;1.80;99.90
3756;DHT22;1893;52.526;13.360;2022-12-07T05:11:20;1.90;99.90
3756;DHT22;1893;52.526;13.360;2022-12-07T05:14:11;1.90;99.90
3756;DHT22;1893;52.526;13.360;2022-12-07T05:16:38;2.00;99.90
3756;DHT22;1893;52.526;13.360;2022-12-07T05:19:04;2.10;99.90
3756;DHT22;1893;52.526;13.360;2022-12-07T05:21:30;2.10;99.90
3756;DHT22;1893;52.526;13.360;2022-12-07T05:23:56;2.10;99.90
3756;DHT22;1893;52.526;13.360;2022-12-07T05:26:22;2.20;99.90
3756;DHT22;1893;52.526;13.360;2022-12-07T05:28:52;2.20;99.90
3756;DHT22;1893;52.526;13.360;2022-12-07T05:31:18;2.20;99.90
3756;DHT22;1893;52.526;13.360;2022-12-07T05:33:43;2.20;99.90
3756;DHT22;1893;52.526;13.360;2022-12-07T05:36:09;2.30;99.90
3756;DHT22;1893;52.526;13.360;2022-12-07T05:38:34;2.30;99.90
3756;DHT22;1893;52.526;13.360;2022-12-07T05:41:05;2.30;99.90
3756;DHT22;1893;52.526;13.360;2022-12-07T05:43:32;2.30;99.90
3756;DHT22;1893;52.526;13.360;2022-12-07T05:45:59;2.30;99.90
3756;DHT22;1893;52.526;13.360;2022-12-07T05:48:25;2.40;99.90
3756;DHT22;1893;52.526;13.360;2022-12-07T05:50:51;2.40;99.90
3756;DHT22;1893;52.526;13.360;2022-12-07T05:53:17;2.40;99.90
3756;DHT22;1893;52.526;13.360;2022-12-07T05:55:43;2.40;99.90
3756;DHT22;1893;52.526;13.360;2022-12-07T05:58:09;2.50;99.90
3756;DHT22;1893;52.526;13.360;2022-12-07T06:00:57;2.50;99.90
3756;DHT22;1893;52.526;13.360;2022-12-07T06:03:23;2.60;99.90
3756;DHT22;1893;52.526;13.360;2022-12-07T06:05:48;2.60;99.90
3756;DHT22;1893;52.526;13.360;2022-12-07T06:08:14;2.80;99.90
3756;DHT22;1893;52.526;13.360;2022-12-07T06:10:41;2.60;99.90
3756;DHT22;1893;52.526;13.360;2022-12-07T06:13:07;2.60;99.90
3756;DHT22;1893;52.526;13.360;2022-12-07T06:15:35;2.70;99.90
3756;DHT22;1893;52.526;13.360;2022-12-07T06:18:01;2.60;99.90
3756;DHT22;1893;52.526;13.360;2022-12-07T06:20:26;2.70;99.90
3756;DHT22;1893;52.526;13.360;2022-12-07T06:22:52;2.80;99.90
3756;DHT22;1893;52.526;13.360;2022-12-07T06:25:17;2.70;99.90
3756;DHT22;1893;52.526;13.360;2022-12-07T06:27:43;2.70;99.90
3756;DHT22;1893;52.526;13.360;2022-12-07T06:30:09;2.70;99.90
3756;DHT22;1893;52.526;13.360;2022-12-07T06:32:36;2.70;99.90
3756;DHT22;1893;52.526;13.360;2022-12-07T06:35:02;2.70;99.90
3756;DHT22;1893;52.526;13.360;2022-12-07T06:37:28;2.70;99.90
3756;DHT22;1893;52.526;13.360;2022-12-07T06:39:54;2.70;99.90
3756;DHT22;1893;52.526;13.360;2022-12-07T06:42:19;2.70;99.90
3756;DHT22;1893;52.526;13.360;2022-12-07T06:44:45;2.70;99.90
3756;DHT22;1893;52.526;13.360;2022-12-07T06:47:10;2.80;99.90
3756;DHT22;1893;52.526;13.360;2022-12-07T06:49:36;3.00;99.90
3756;DHT22;1893;52.526;13.360;2022-12-07T06:52:02;2.90;99.90
3756;DHT22;1893;52.526;13.360;2022-12-07T06:54:28;2.90;99.90
3756;DHT22;1893;52.526;13.360;2022-12-07T06:56:55;2.90;99.90
3756;DHT22;1893;52.526;13.360;2022-12-07T06:59:21;3.00;99.90
3756;DHT22;1893;52.526;13.360;2022-12-07T07:01:46;3.00;99.90
3756;DHT22;1893;52.526;13.360;2022-12-07T07:04:12;3.00;99.90
3756;DHT22;1893;52.526;13.360;2022-12-07T07:06:37;3.00;99.90
3756;DHT22;1893;52.526;13.360;2022-12-07T07:09:03;3.10;99.90
3756;DHT22;1893;52.526;13.360;2022-12-07T07:11:29;3.10;99.90
3756;DHT22;1893;52.526;13.360;2022-12-07T07:13:54;3.10;99.90
3756;DHT22;1893;52.526;13.360;2022-12-07T07:16:22;3.10;99.90
3756;DHT22;1893;52.526;13.360;2022-12-07T07:18:48;3.20;99.90
3756;DHT22;1893;52.526;13.360;2022-12-07T07:21:14;3.20;99.90
3756;DHT22;1893;52.526;13.360;2022-12-07T07:23:39;3.20;99.90
3756;DHT22;1893;52.526;13.360;2022-12-07T07:26:05;3.30;99.90
3756;DHT22;1893;52.526;13.360;2022-12-07T07:28:30;3.30;99.90
3756;DHT22;1893;52.526;13.360;2022-12-07T07:30:56;3.30;99.90
3756;DHT22;1893;52.526;13.360;2022-12-07T07:33:21;3.30;99.90
3756;DHT22;1893;52.526;13.360;2022-12-07T07:35:47;3.30;99.90
3756;DHT22;1893;52.526;13.360;2022-12-07T07:38:12;3.30;99.90
3756;DHT22;1893;52.526;13.360;2022-12-07T07:40:38;3.20;99.90
3756;DHT22;1893;52.526;13.360;2022-12-07T07:43:04;3.20;99.90
3756;DHT22;1893;52.526;13.360;2022-12-07T07:45:29;3.20;99.90
3756;DHT22;1893;52.526;13.360;2022-12-07T07:47:55;3.20;99.90
3756;DHT22;1893;52.526;13.360;2022-12-07T07:50:22;3.20;99.90
3756;DHT22;1893;52.526;13.360;2022-12-07T07:52:48;3.20;99.90
3756;DHT22;1893;52.526;13.360;2022-12-07T07:55:14;3.30;99.90
3756;DHT22;1893;52.526;13.360;2022-12-07T07:57:40;3.30;99.90
3756;DHT22;1893;52.526;13.360;2022-12-07T08:00:11;3.30;99.90
3756;DHT22;1893;52.526;13.360;2022-12-07T08:02:36;3.30;99.90
3756;DHT22;1893;52.526;13.360;2022-12-07T08:05:02;3.30;99.90
3756;DHT22;1893;52.526;13.360;2022-12-07T08:07:28;3.30;99.90
3756;DHT22;1893;52.526;13.360;2022-12-07T08:09:54;3.30;99.90
3756;DHT22;1893;52.526;13.360;2022-12-07T08:12:19;3.30;99.90
3756;DHT22;1893;52.526;13.360;2022-12-07T08:14:45;3.30;99.90
3756;DHT22;1893;52.526;13.360;2022-12-07T08:17:11;3.40;99.90
3756;DHT22;1893;52.526;13.360;2022-12-07T08:19:37;3.40;99.90
3756;DHT22;1893;52.526;13.360;2022-12-07T08:22:03;3.40;99.90
3756;DHT22;1893;52.526;13.360;2022-12-07T08:24:28;3.50;99.90
3756;DHT22;1893;52.526;13.360;2022-12-07T08:26:54;3.60;99.90
3756;DHT22;1893;52.526;13.360;2022-12-07T08:29:20;3.50;99.90
3756;DHT22;1893;52.526;13.360;2022-12-07T08:31:46;3.50;99.90
3756;DHT22;1893;52.526;13.360;2022-12-07T08:34:12;3.50;99.90
3756;DHT22;1893;52.526;13.360;2022-12-07T08:36:38;3.60;99.90
3756;DHT22;1893;52.526;13.360;2022-12-07T08:39:04;3.60;99.90
3756;DHT22;1893;52.526;13.360;2022-12-07T08:41:29;3.60;99.90
3756;DHT22;1893;52.526;13.360;2022-12-07T08:43:55;3.60;99.90
3756;DHT22;1893;52.526;13.360;2022-12-07T08:48:58;3.50;1.00
3756;DHT22;1893;52.526;13.360;2022-12-07T08:51:26;3.70;1.00
3756;DHT22;1893;52.526;13.360;2022-12-07T08:53:53;3.60;1.00
3756;DHT22;1893;52.526;13.360;2022-12-07T08:56:19;3.60;1.00
3756;DHT22;1893;52.526;13.360;2022-12-07T08:58:46;3.60;1.00
3756;DHT22;1893;52.526;13.360;2022-12-07T09:01:12;3.70;1.00
3756;DHT22;1893;52.526;13.360;2022-12-07T09:03:38;3.70;1.00
3756;DHT22;1893;52.526;13.360;2022-12-07T09:06:03;3.70;99.90
3756;DHT22;1893;52.526;13.360;2022-12-07T09:08:40;3.70;99.90
3756;DHT22;1893;52.526;13.360;2022-12-07T09:11:07;3.60;1.00
3756;DHT22;1893;52.526;13.360;2022-12-07T09:13:33;3.60;99.90
3756;DHT22;1893;52.526;13.360;2022-12-07T09:15:58;3.60;93.10
3756;DHT22;1893;52.526;13.360;2022-12-07T09:18:24;3.60;33.30
3756;DHT22;1893;52.526;13.360;2022-12-07T09:20:50;3.50;7.40
3756;DHT22;1893;52.526;13.360;2022-12-07T09:23:16;3.40;1.00
3756;DHT22;1893;52.526;13.360;2022-12-07T09:25:42;3.40;72.20
3756;DHT22;1893;52.526;13.360;2022-12-07T09:28:08;3.50;1.00
3756;DHT22;1893;52.526;13.360;2022-12-07T09:30:34;3.30;1.00
3756;DHT22;1893;52.526;13.360;2022-12-07T09:32:59;3.30;41.40
3756;DHT22;1893;52.526;13.360;2022-12-07T09:35:25;3.30;99.90
3756;DHT22;1893;52.526;13.360;2022-12-07T09:37:51;3.40;99.90
3756;DHT22;1893;52.526;13.360;2022-12-07T09:40:18;3.30;1.00
3756;DHT22;1893;52.526;13.360;2022-12-07T09:42:48;3.30;99.90
3756;DHT22;1893;52.526;13.360;2022-12-07T09:45:18;3.30;99.90
3756;DHT22;1893;52.526;13.360;2022-12-07T09:47:45;3.30;37.70
3756;DHT22;1893;52.526;13.360;2022-12-07T09:50:21;3.30;1.00
3756;DHT22;1893;52.526;13.360;2022-12-07T09:52:48;3.30;1.00
3756;DHT22;1893;52.526;13.360;2022-12-07T09:55:27;3.20;99.90
3756;DHT22;1893;52.526;13.360;2022-12-07T09:57:53;3.20;1.00
3756;DHT22;1893;52.526;13.360;2022-12-07T10:00:22;3.20;99.90
3756;DHT22;1893;52.526;13.360;2022-12-07T10:02:59;3.20;99.90
3756;DHT22;1893;52.526;13.360;2022-12-07T10:05:46;3.20;1.00
3756;DHT22;1893;52.526;13.360;2022-12-07T10:08:17;3.20;99.90
3756;DHT22;1893;52.526;13.360;2022-12-07T10:10:44;3.20;99.90
3756;DHT22;1893;52.526;13.360;2022-12-07T10:13:12;3.20;99.90
3756;DHT22;1893;52.526;13.360;2022-12-07T10:15:56;3.10;90.60
3756;DHT22;1893;52.526;13.360;2022-12-07T10:21:03;3.30;99.90
3756;DHT22;1893;52.526;13.360;2022-12-07T10:23:29;3.30;99.90
3756;DHT22;1893;52.526;13.360;2022-12-07T10:25:54;3.30;99.90
3756;DHT22;1893;52.526;13.360;2022-12-07T10:28:21;3.20;99.90
3756;DHT22;1893;52.526;13.360;2022-12-07T10:31:02;3.20;1.00
3756;DHT22;1893;52.526;13.360;2022-12-07T10:33:38;3.20;1.00
3756;DHT22;1893;52.526;13.360;2022-12-07T10:36:24;3.40;1.00
3756;DHT22;1893;52.526;13.360;2022-12-07T10:41:25;4.10;99.90
3756;DHT22;1893;52.526;13.360;2022-12-07T10:43:54;3.80;99.90
3756;DHT22;1893;52.526;13.360;2022-12-07T10:58:00;3.20;99.90
3756;DHT22;1893;52.526;13.360;2022-12-07T11:06:27;3.30;99.90
3756;DHT22;1893;52.526;13.360;2022-12-07T11:12:05;3.40;99.90
3756;DHT22;1893;52.526;13.360;2022-12-07T11:15:04;3.40;99.90
3756;DHT22;1893;52.526;13.360;2022-12-07T11:18:01;3.40;1.00
3756;DHT22;1893;52.526;13.360;2022-12-07T11:27:04;3.50;99.90
3756;DHT22;1893;52.526;13.360;2022-12-07T11:29:33;3.60;99.90
3756;DHT22;1893;52.526;13.360;2022-12-07T11:37:42;3.60;99.90
3756;DHT22;1893;52.526;13.360;2022-12-07T11:40:30;3.60;99.90
3756;DHT22;1893;52.526;13.360;2022-12-07T11:45:42;3.80;99.90
3756;DHT22;1893;52.526;13.360;2022-12-07T11:48:17;3.80;99.90
3756;DHT22;1893;52.526;13.360;2022-12-07T11:50:51;3.80;85.90
3756;DHT22;1893;52.526;13.360;2022-12-07T11:53:23;3.70;99.90
3756;DHT22;1893;52.526;13.360;2022-12-07T11:55:59;3.80;99.90
3756;DHT22;1893;52.526;13.360;2022-12-07T12:04:27;3.70;99.90
3756;DHT22;1893;52.526;13.360;2022-12-07T12:06:54;3.70;99.90
3756;DHT22;1893;52.526;13.360;2022-12-07T12:09:35;3.80;99.90
3756;DHT22;1893;52.526;13.360;2022-12-07T12:12:17;3.70;99.90
3756;DHT22;1893;52.526;13.360;2022-12-07T12:22:51;4.10;99.90
3756;DHT22;1893;52.526;13.360;2022-12-07T12:25:30;4.30;99.90
3756;DHT22;1893;52.526;13.360;2022-12-07T12:27:58;4.40;57.20
3756;DHT22;1893;52.526;13.360;2022-12-07T12:30:31;4.40;99.90
3756;DHT22;1893;52.526;13.360;2022-12-07T12:33:16;4.30;99.90
3756;DHT22;1893;52.526;13.360;2022-12-07T12:35:45;4.20;75.60
3756;DHT22;1893;52.526;13.360;2022-12-07T12:40:50;4.10;56.50
3756;DHT22;1893;52.526;13.360;2022-12-07T12:43:42;4.10;88.30
3756;DHT22;1893;52.526;13.360;2022-12-07T12:51:47;4.10;99.90
3756;DHT22;1893;52.526;13.360;2022-12-07T12:54:31;4.00;99.90
3756;DHT22;1893;52.526;13.360;2022-12-07T12:57:24;4.00;99.90
3756;DHT22;1893;52.526;13.360;2022-12-07T13:02:50;4.10;99.90
3756;DHT22;1893;52.526;13.360;2022-12-07T13:05:19;4.10;99.90
3756;DHT22;1893;52.526;13.360;2022-12-07T13:07:48;4.10;99.90
3756;DHT22;1893;52.526;13.360;2022-12-07T13:15:52;4.30;99.90
3756;DHT22;1893;52.526;13.360;2022-12-07T13:20:59;4.40;1.00
3756;DHT22;1893;52.526;13.360;2022-12-07T13:29:15;4.30;99.90
3756;DHT22;1893;52.526;13.360;2022-12-07T13:31:52;4.20;99.90
3756;DHT22;1893;52.526;13.360;2022-12-07T13:34:36;4.20;99.90
3756;DHT22;1893;52.526;13.360;2022-12-07T13:37:15;4.20;99.90
3756;DHT22;1893;52.526;13.360;2022-12-07T13:39:47;4.30;99.90
3756;DHT22;1893;52.526;13.360;2022-12-07T13:42:25;4.30;99.90
3756;DHT22;1893;52.526;13.360;2022-12-07T13:44:52;4.30;99.90
3756;DHT22;1893;52.526;13.360;2022-12-07T13:49:53;4.30;99.90
3756;DHT22;1893;52.526;13.360;2022-12-07T13:52:24;4.30;99.90
3756;DHT22;1893;52.526;13.360;2022-12-07T13:54:57;4.30;99.90
3756;DHT22;1893;52.526;13.360;2022-12-07T13:57:29;4.20;99.90
3756;DHT22;1893;52.526;13.360;2022-12-07T13:59:56;4.20;99.90
3756;DHT22;1893;52.526;13.360;2022-12-07T14:02:30;4.20;99.90
3756;DHT22;1893;52.526;13.360;2022-12-07T14:05:15;4.20;99.90
3756;DHT22;1893;52.526;13.360;2022-12-07T14:08:05;4.10;99.90
3756;DHT22;1893;52.526;13.360;2022-12-07T14:10:33;4.10;99.90
3756;DHT22;1893;52.526;13.360;2022-12-07T14:13:00;4.20;99.90
3756;DHT22;1893;52.526;13.360;2022-12-07T14:15:34;4.20;99.90
3756;DHT22;1893;52.526;13.360;2022-12-07T14:18:01;4.20;99.90
3756;DHT22;1893;52.526;13.360;2022-12-07T14:20:29;4.20;99.90
3756;DHT22;1893;52.526;13.360;2022-12-07T14:22:56;4.20;99.90
3756;DHT22;1893;52.526;13.360;2022-12-07T14:25:26;4.20;99.90
3756;DHT22;1893;52.526;13.360;2022-12-07T14:30:26;4.10;99.90
3756;DHT22;1893;52.526;13.360;2022-12-07T14:33:02;4.10;99.90
3756;DHT22;1893;52.526;13.360;2022-12-07T14:35:28;4.10;99.90
3756;DHT22;1893;52.526;13.360;2022-12-07T14:37:54;4.00;99.90
3756;DHT22;1893;52.526;13.360;2022-12-07T14:40:22;4.00;1.00
3756;DHT22;1893;52.526;13.360;2022-12-07T14:42:51;3.90;1.00
3756;DHT22;1893;52.526;13.360;2022-12-07T14:45:21;3.90;1.00
3756;DHT22;1893;52.526;13.360;2022-12-07T14:47:47;3.80;1.00
3756;DHT22;1893;52.526;13.360;2022-12-07T14:50:14;3.80;1.00
3756;DHT22;1893;52.526;13.360;2022-12-07T14:52:43;3.80;1.00
3756;DHT22;1893;52.526;13.360;2022-12-07T14:55:14;3.70;1.00
3756;DHT22;1893;52.526;13.360;2022-12-07T14:57:41;3.70;1.00
3756;DHT22;1893;52.526;13.360;2022-12-07T15:00:09;3.70;1.00
3756;DHT22;1893;52.526;13.360;2022-12-07T15:02:38;3.70;1.00
3756;DHT22;1893;52.526;13.360;2022-12-07T15:05:04;3.70;1.00
3756;DHT22;1893;52.526;13.360;2022-12-07T15:07:30;3.60;1.00
3756;DHT22;1893;52.526;13.360;2022-12-07T15:09:55;3.60;1.00
3756;DHT22;1893;52.526;13.360;2022-12-07T15:12:21;3.50;1.00
3756;DHT22;1893;52.526;13.360;2022-12-07T15:14:46;3.50;1.00
3756;DHT22;1893;52.526;13.360;2022-12-07T15:17:12;3.50;1.00
3756;DHT22;1893;52.526;13.360;2022-12-07T15:19:38;3.50;1.00
3756;DHT22;1893;52.526;13.360;2022-12-07T15:22:04;3.50;1.00
3756;DHT22;1893;52.526;13.360;2022-12-07T15:24:30;3.40;1.00
3756;DHT22;1893;52.526;13.360;2022-12-07T15:26:55;3.40;1.00
3756;DHT22;1893;52.526;13.360;2022-12-07T15:29:21;3.40;1.00
3756;DHT22;1893;52.526;13.360;2022-12-07T15:31:49;3.40;1.00
3756;DHT22;1893;52.526;13.360;2022-12-07T15:34:14;3.40;1.00
3756;DHT22;1893;52.526;13.360;2022-12-07T15:36:40;3.40;1.00
3756;DHT22;1893;52.526;13.360;2022-12-07T15:39:05;3.40;1.00
3756;DHT22;1893;52.526;13.360;2022-12-07T15:41:31;3.40;1.00
3756;DHT22;1893;52.526;13.360;2022-12-07T15:43:57;3.40;1.00
3756;DHT22;1893;52.526;13.360;2022-12-07T15:46:41;3.40;1.00
3756;DHT22;1893;52.526;13.360;2022-12-07T15:49:13;3.40;1.00
3756;DHT22;1893;52.526;13.360;2022-12-07T15:51:40;3.40;1.00
3756;DHT22;1893;52.526;13.360;2022-12-07T15:54:06;3.40;1.00
3756;DHT22;1893;52.526;13.360;2022-12-07T15:56:31;3.40;1.00
3756;DHT22;1893;52.526;13.360;2022-12-07T15:58:57;3.40;1.00
3756;DHT22;1893;52.526;13.360;2022-12-07T16:01:22;3.40;1.00
3756;DHT22;1893;52.526;13.360;2022-12-07T16:03:48;3.50;1.00
3756;DHT22;1893;52.526;13.360;2022-12-07T16:06:17;3.40;1.00
3756;DHT22;1893;52.526;13.360;2022-12-07T16:08:46;3.40;1.00
3756;DHT22;1893;52.526;13.360;2022-12-07T16:11:13;3.30;1.00
3756;DHT22;1893;52.526;13.360;2022-12-07T16:13:38;3.30;1.00
3756;DHT22;1893;52.526;13.360;2022-12-07T16:16:06;3.30;1.00
3756;DHT22;1893;52.526;13.360;2022-12-07T16:18:33;3.20;1.00
3756;DHT22;1893;52.526;13.360;2022-12-07T16:20:59;3.20;1.00
3756;DHT22;1893;52.526;13.360;2022-12-07T16:23:24;3.20;1.00
3756;DHT22;1893;52.526;13.360;2022-12-07T16:25:50;3.10;1.00
3756;DHT22;1893;52.526;13.360;2022-12-07T16:28:16;3.10;1.00
3756;DHT22;1893;52.526;13.360;2022-12-07T16:30:41;3.10;1.00
3756;DHT22;1893;52.526;13.360;2022-12-07T16:33:07;3.00;1.00
3756;DHT22;1893;52.526;13.360;2022-12-07T16:35:32;3.00;1.00
3756;DHT22;1893;52.526;13.360;2022-12-07T16:37:58;3.00;1.00
3756;DHT22;1893;52.526;13.360;2022-12-07T16:40:23;3.00;1.00
3756;DHT22;1893;52.526;13.360;2022-12-07T16:42:49;3.00;1.00
3756;DHT22;1893;52.526;13.360;2022-12-07T16:45:15;3.00;1.00
3756;DHT22;1893;52.526;13.360;2022-12-07T16:47:40;3.00;1.00
3756;DHT22;1893;52.526;13.360;2022-12-07T16:50:06;2.90;1.00
3756;DHT22;1893;52.526;13.360;2022-12-07T16:52:33;2.90;1.00
3756;DHT22;1893;52.526;13.360;2022-12-07T16:54:59;3.00;1.00
3756;DHT22;1893;52.526;13.360;2022-12-07T16:57:25;2.90;1.00
3756;DHT22;1893;52.526;13.360;2022-12-07T16:59:53;2.80;1.00
3756;DHT22;1893;52.526;13.360;2022-12-07T17:02:19;2.80;1.00
3756;DHT22;1893;52.526;13.360;2022-12-07T17:04:45;2.80;1.00
3756;DHT22;1893;52.526;13.360;2022-12-07T17:07:11;2.70;1.00
3756;DHT22;1893;52.526;13.360;2022-12-07T17:09:37;2.80;1.00
3756;DHT22;1893;52.526;13.360;2022-12-07T17:12:03;2.70;1.00
3756;DHT22;1893;52.526;13.360;2022-12-07T17:14:30;2.80;1.00
3756;DHT22;1893;52.526;13.360;2022-12-07T17:17:14;2.70;1.00
3756;DHT22;1893;52.526;13.360;2022-12-07T17:19:40;2.70;1.00
3756;DHT22;1893;52.526;13.360;2022-12-07T17:22:06;2.70;1.00
3756;DHT22;1893;52.526;13.360;2022-12-07T17:24:31;2.70;1.00
3756;DHT22;1893;52.526;13.360;2022-12-07T17:26:57;2.70;1.00
3756;DHT22;1893;52.526;13.360;2022-12-07T17:29:22;2.70;1.00
3756;DHT22;1893;52.526;13.360;2022-12-07T17:31:48;2.70;1.00
3756;DHT22;1893;52.526;13.360;2022-12-07T17:34:15;2.70;1.00
3756;DHT22;1893;52.526;13.360;2022-12-07T17:36:41;2.70;1.00
3756;DHT22;1893;52.526;13.360;2022-12-07T17:39:10;2.60;1.00
3756;DHT22;1893;52.526;13.360;2022-12-07T17:41:37;2.60;1.00
3756;DHT22;1893;52.526;13.360;2022-12-07T17:44:21;2.50;1.00
3756;DHT22;1893;52.526;13.360;2022-12-07T17:46:50;2.50;1.00
3756;DHT22;1893;52.526;13.360;2022-12-07T17:49:19;2.50;1.00
3756;DHT22;1893;52.526;13.360;2022-12-07T17:51:45;2.50;1.00
3756;DHT22;1893;52.526;13.360;2022-12-07T17:54:29;2.40;1.00
3756;DHT22;1893;52.526;13.360;2022-12-07T17:56:55;2.40;1.00
3756;DHT22;1893;52.526;13.360;2022-12-07T17:59:21;2.40;1.00
3756;DHT22;1893;52.526;13.360;2022-12-07T18:01:46;2.40;1.00
3756;DHT22;1893;52.526;13.360;2022-12-07T18:04:12;2.30;1.00